Het weer levert geen direct gevaar op.    Er zijn geen waarschuwingen afgegeven.


Onweer radar Meer informatie blitzortung!


Regen radar Meer informatie rain snow radar


Bezoek onze andere website:

Template documentation
and downloads

And another site



Select another period ( hide this area )

Eenheden Periode Custom range Directly to
Metrisch Engels Beide
Dagelijkse Wekelijkse Maandelijkse Jaarlijkse
use both date-selectors for a custom range
previous Dag
With this date

WeatherUnderground graphs for this period ( click here )


Dagelijkse Samenvatting Zaterdag 18 augustus 2018
Tijd Temp. ( °C ) Dew pt. ( °C ) Wind ( km/h ) van Windvlaag ( km/h ) Luchtdruk ( hPa ) Humid.( % ) Rainrate ( cm )
Hoog21,2 16,2 31,5 ZW ( 1224/2619 ) 21,7 1020,7 92 -
Gemiddeld18,0 14,4 13,0 ZW #67/201 8,0 1020,0 80 -
Laag15,7 12,7 1,9   0,5 1019,2 63 -
Dagelijkse Tabular details for Zaterdag 18 augustus 2018
Tijd Temp. ( °C ) Dew pt. ( °C ) Wind ( km/h ) van Windvlaag ( km/h ) Luchtdruk ( hPa ) Humid.( % ) Rainrate ( cm )
00:04 16,9 12,8 5,6 ZZO 1,9 1019,9 77 -
00:09 16,8 12,8 3,7 ZZO 1,9 1020,0 77 -
00:14 16,8 12,9 3,7 ZZO 1,8 1020,0 78 -
00:19 16,7 12,9 5,6 ZZO 1,9 1020,0 78 -
00:24 16,7 12,8 5,6 ZZO 2,3 1020,0 78 -
00:29 16,6 12,9 5,6 ZZW 4,2 1020,0 79 -
00:34 16,6 12,9 1,9 Zuiden 1,6 1019,9 79 -
00:39 16,4 12,8 7,4 ZZW 3,7 1020,0 79 -
00:44 16,4 12,8 1,9 Zuiden 1,1 1019,9 79 -
00:49 16,4 12,7 5,6 ZZW 2,3 1019,9 79 -
00:54 16,3 12,7 7,4 Zuiden 1,6 1019,9 79 -
00:59 16,3 12,7 5,6 ZZW 1,9 1019,9 79 -
01:04 16,3 12,7 3,7 Zuiden 2,9 1019,9 79 -
01:09 16,3 12,7 9,3 ZZW 1,0 1019,9 79 -
01:14 16,3 12,9 7,4 ZZW 1,4 1019,9 80 -
01:19 16,3 12,9 5,6 Zuiden 4,3 1019,9 80 -
01:24 16,3 12,9 3,7 Zuiden 1,4 1019,9 80 -
01:29 16,3 12,9 5,6 ZZW 1,9 1019,9 80 -
01:34 16,3 12,8 6,4 ZZW 4,0 1019,9 80 -
01:39 16,3 13,0 5,6 ZZW 2,6 1019,8 81 -
01:44 16,2 12,9 3,7 Zuiden 4,7 1019,8 81 -
01:49 16,2 12,9 3,7 ZZW 2,4 1019,8 81 -
01:54 16,2 12,9 5,6 Zuiden 2,7 1019,7 81 -
01:59 16,2 12,9 5,6 ZZW 3,4 1019,8 81 -
02:04 16,2 13,1 5,6 ZZW 3,5 1019,7 82 -
02:09 16,2 13,1 5,6 ZW 2,3 1019,7 82 -
02:14 16,1 13,1 5,6 ZW 3,5 1019,7 82 -
02:19 16,1 13,1 1,9 Zuiden 2,3 1019,7 82 -
02:24 16,1 13,1 5,6 ZZW 3,7 1019,7 82 -
02:29 16,1 13,2 1,9 ZZO 1,9 1019,7 83 -
02:34 16,1 13,2 5,6 ZO 1,8 1019,7 83 -
02:39 16,0 13,1 3,7 Zuiden 0,5 1019,6 83 -
02:44 16,0 13,1 5,6 ZO 3,2 1019,6 83 -
02:49 15,9 13,1 3,7 Zuiden 1,8 1019,6 83 -
02:54 15,9 13,2 5,6 ZZW 2,4 1019,6 84 -
02:59 15,9 13,2 5,6 ZZW 0,8 1019,6 84 -
03:04 15,9 13,2 5,6 ZZW 1,9 1019,5 84 -
03:09 15,9 13,2 5,6 ZW 2,4 1019,5 84 -
03:14 15,9 13,2 6,4 ZZW 3,5 1019,6 84 -
03:19 15,8 13,3 5,6 ZZO 4,3 1019,6 85 -
03:24 15,8 13,3 5,6 Zuiden 2,3 1019,6 85 -
03:29 15,8 13,3 5,6 ZZW 1,6 1019,6 85 -
03:34 15,8 13,3 5,6 ZZW 2,4 1019,6 85 -
03:39 15,8 13,3 5,6 ZW 5,8 1019,7 85 -
03:44 15,9 13,6 4,8 ZZW 2,4 1019,7 86 -
03:49 15,9 13,6 5,6 ZZO 3,1 1019,6 86 -
03:54 15,9 13,6 9,3 Zuiden 2,1 1019,6 86 -
03:59 15,9 13,6 4,8 Zuiden 3,5 1019,6 86 -
04:04 15,9 13,6 3,7 NNW 1,3 1019,4 86 -
04:09 15,9 13,6 7,4 ZZW 3,5 1019,4 86 -
04:14 15,9 13,6 5,6 ZZW 2,7 1019,4 86 -
04:19 15,9 13,6 3,7 Zuiden 1,9 1019,4 86 -
04:24 15,8 13,5 3,7 ZW 2,1 1019,3 86 -
04:29 15,8 13,6 7,4 ZZW 1,9 1019,3 87 -
04:34 15,8 13,6 5,6 Zuiden 3,1 1019,3 87 -
04:39 15,8 13,6 5,6 ZZW 3,1 1019,3 87 -
04:44 15,8 13,6 5,6 Zuiden 2,6 1019,3 87 -
04:49 15,8 13,6 3,7 ZZW 2,9 1019,3 87 -
04:54 15,7 13,7 3,7 Zuiden 1,3 1019,4 88 -
04:59 15,8 13,8 5,6 Zuiden 3,7 1019,3 88 -
05:04 15,8 13,8 7,4 Zuiden 2,4 1019,3 88 -
05:09 15,8 13,8 7,4 Zuiden 4,3 1019,3 88 -
05:14 15,9 13,9 7,4 ZZW 5,3 1019,2 88 -
05:19 15,9 14,1 5,6 Zuiden 1,6 1019,2 89 -
05:24 15,9 14,1 5,6 Zuiden 2,9 1019,2 89 -
05:29 15,9 14,1 3,7 ZZW 2,1 1019,2 89 -
05:34 16,0 14,2 5,6 Zuiden 1,8 1019,2 89 -
05:39 16,0 14,2 7,4 ZZW 3,7 1019,2 89 -
05:44 16,0 14,2 9,3 ZZO 2,7 1019,2 89 -
05:49 16,0 14,2 5,6 ZZW 3,2 1019,2 89 -
05:54 16,1 14,2 13,0 Zuiden 3,5 1019,2 89 -
05:59 16,1 14,2 5,6 ZW 1,8 1019,3 89 -
06:04 16,1 14,2 7,4 ZW 3,7 1019,2 89 -
06:09 16,1 14,2 5,6 ZZW 1,3 1019,2 89 -
06:14 16,0 14,2 6,4 Oosten 2,1 1019,2 89 -
06:19 16,1 14,2 9,3 Zuiden 1,9 1019,2 89 -
06:24 16,0 14,2 7,4 ZZW 2,1 1019,3 89 -
06:29 15,9 14,1 9,3 ZZO 3,5 1019,4 89 -
06:34 15,9 14,1 6,4 ZW 5,0 1019,4 89 -
06:39 15,9 14,1 9,3 Zuiden 5,5 1019,4 89 -
06:44 15,9 14,1 7,4 Zuiden 5,0 1019,4 89 -
06:49 15,9 14,3 7,4 ZZO 4,2 1019,4 90 -
06:54 15,9 14,3 7,4 ZZW 3,4 1019,4 90 -
06:59 15,9 14,3 13,0 ZW 4,8 1019,5 90 -
07:04 15,9 14,3 5,6 Westen 5,3 1019,6 90 -
07:09 16,0 14,3 5,6 ZZW 5,6 1019,6 90 -
07:14 16,1 14,8 6,4 Zuiden 1,8 1019,6 92 -
07:19 16,1 14,4 9,3 ZZW 6,4 1019,7 90 -
07:24 16,2 14,5 8,0 ZZW 7,6 1019,7 90 -
07:29 16,2 14,6 7,4 ZW 2,9 1019,7 90 -
07:34 16,3 14,7 7,4 ZZW 2,9 1019,7 90 -
07:39 16,4 14,8 9,7 Zuiden 3,2 1019,6 90 -
07:44 16,6 14,9 5,6 ZZW 5,5 1019,6 90 -
07:49 16,7 14,8 11,1 Zuiden 3,9 1019,7 89 -
07:54 16,8 15,0 9,7 Zuiden 6,0 1019,6 89 -
07:59 17,1 15,2 9,7 ZZO 5,1 1019,6 89 -
08:04 17,3 15,3 6,4 ZW 4,5 1019,7 88 -
08:09 17,3 15,1 7,4 ZW 5,8 1019,7 87 -
08:14 17,3 15,1 6,4 ZW 7,9 1019,7 87 -
08:19 17,2 15,1 14,8 ZW 5,5 1019,8 87 -
08:24 17,2 15,1 9,3 ZZW 6,0 1019,7 87 -
08:29 17,2 15,2 14,8 ZW 11,3 1019,8 88 -
08:34 17,2 15,2 9,7 ZZO 5,8 1019,8 88 -
08:39 17,3 15,3 9,3 ZZW 3,5 1019,9 88 -
08:44 17,3 15,3 5,6 ZW 2,9 1019,9 88 -
08:49 17,3 15,3 5,6 Zuiden 4,8 1019,9 88 -
08:54 17,3 15,3 9,3 ZZW 6,6 1019,9 88 -
08:59 17,3 15,3 9,3 Zuiden 4,3 1019,9 88 -
09:04 17,3 15,3 9,3 Zuiden 4,8 1019,9 88 -
09:09 17,4 15,4 13,0 Zuiden 4,7 1019,9 88 -
09:14 17,6 15,6 7,4 ZZW 9,3 1020,0 88 -
09:19 17,8 15,7 14,8 ZZW 7,6 1019,9 87 -
09:24 18,0 15,8 9,3 ZW 5,1 1019,9 87 -
09:29 18,1 15,8 11,3 ZW 8,8 1019,9 87 -
09:34 18,1 15,7 11,1 WZW 5,1 1019,9 86 -
09:39 18,2 16,0 13,0 ZW 4,0 1019,8 87 -
09:44 18,4 16,1 7,4 ZZW 6,9 1019,8 86 -
09:49 18,7 16,1 16,7 WZW 4,5 1019,8 85 -
09:54 18,9 16,1 16,7 Zuiden 4,7 1019,9 84 -
09:59 19,2 16,2 13,0 ZW 2,6 1019,9 83 -
10:04 19,3 16,1 11,1 ZZW 5,8 1020,0 82 -
10:09 19,2 15,7 22,2 ZW 10,3 1020,0 80 -
10:14 19,2 15,4 18,5 ZZW 14,0 1020,1 79 -
10:19 19,2 15,4 22,2 ZW 13,0 1020,0 79 -
10:24 19,4 15,7 14,8 ZZW 6,8 1020,0 79 -
10:29 19,7 15,4 22,2 WZW 14,5 1020,1 76 -
10:34 19,7 14,9 27,8 ZW 16,6 1020,1 74 -
10:39 19,6 14,8 22,2 ZW 14,8 1020,1 74 -
10:44 19,7 14,9 24,1 ZW 17,1 1020,2 74 -
10:49 19,8 15,0 18,5 ZW 13,2 1020,2 74 -
10:54 19,8 15,1 24,1 WZW 18,0 1020,2 74 -
10:59 19,9 15,1 22,2 WZW 13,2 1020,3 74 -
11:04 20,1 15,3 25,9 WZW 12,1 1020,3 74 -
11:09 20,2 15,4 18,5 ZW 8,7 1020,3 74 -
11:14 20,2 15,2 24,1 ZW 11,6 1020,4 73 -
11:19 20,1 15,1 20,4 ZW 15,1 1020,4 73 -
11:24 20,0 15,0 19,3 WZW 15,9 1020,4 73 -
11:29 19,9 15,2 24,1 ZZW 17,5 1020,4 74 -
11:34 19,8 15,2 27,8 ZW 16,3 1020,5 75 -
11:39 19,7 15,1 22,2 ZW 15,6 1020,3 75 -
11:44 19,6 15,1 22,2 ZZW 14,8 1020,4 75 -
11:49 19,6 15,3 18,5 ZW 12,7 1020,4 76 -
11:54 19,7 15,4 16,7 Zuiden 13,2 1020,4 76 -
11:59 19,8 15,2 18,5 ZW 7,9 1020,4 75 -
12:04 19,8 15,3 20,4 WZW 15,8 1020,4 75 -
12:09 19,8 15,3 16,7 ZZW 18,5 1020,5 75 -
12:14 19,7 15,4 16,7 ZW 8,8 1020,4 76 -
12:19 19,7 15,5 19,3 ZW 14,3 1020,5 77 -
12:24 19,6 15,4 22,2 ZW 14,5 1020,5 77 -
12:29 19,6 15,4 20,4 ZW 13,7 1020,5 77 -
12:34 19,8 15,6 18,5 Zuiden 12,4 1020,5 77 -
12:39 20,2 15,7 14,8 ZZW 13,5 1020,5 75 -
12:44 20,4 15,6 22,2 WZW 15,6 1020,4 74 -
12:49 20,4 15,4 17,7 WZW 14,2 1020,5 73 -
12:54 20,3 15,1 22,2 ZZW 17,5 1020,6 72 -
12:59 20,4 15,4 18,5 ZW 10,6 1020,5 73 -
13:04 20,5 15,3 29,6 ZW 16,6 1020,6 72 -
13:09 20,7 15,4 25,7 ZW 14,8 1020,5 72 -
13:14 20,7 15,1 22,2 ZW 16,7 1020,5 70 -
13:19 20,7 15,2 24,1 WZW 15,3 1020,5 71 -
13:24 20,7 15,4 20,4 ZW 12,1 1020,5 72 -
13:29 20,6 15,2 20,9 ZW 13,2 1020,5 71 -
13:34 20,8 15,1 27,8 ZW 16,7 1020,6 70 -
13:39 20,9 15,0 22,2 ZZW 15,0 1020,6 69 -
13:44 21,1 15,0 22,2 ZW 15,1 1020,6 68 -
13:49 21,2 15,0 31,5 ZZO 17,9 1020,6 68 -
13:54 21,2 15,0 18,5 ZW 11,7 1020,6 68 -
13:59 21,1 14,9 16,7 ZW 16,7 1020,6 68 -
14:04 21,1 14,9 24,1 ZW 14,8 1020,5 68 -
14:09 20,9 14,8 22,2 ZZW 14,3 1020,6 68 -
14:14 20,9 15,1 18,5 ZZW 13,2 1020,6 69 -
14:19 20,9 15,0 22,2 ZW 11,4 1020,6 69 -
14:24 20,7 14,8 22,2 ZW 16,9 1020,6 69 -
14:29 20,4 14,8 20,4 WZW 10,6 1020,6 70 -
14:34 20,3 14,7 22,2 ZZW 17,4 1020,6 70 -
14:39 20,2 14,6 18,5 ZW 14,6 1020,7 70 -
14:44 20,2 14,7 27,8 ZZW 17,9 1020,6 71 -
14:49 20,2 14,5 18,5 ZW 10,5 1020,6 70 -
14:54 20,3 14,6 16,7 ZW 8,0 1020,7 70 -
14:59 20,4 14,5 18,5 ZW 16,3 1020,7 69 -
15:04 20,3 14,2 27,8 ZW 13,5 1020,6 68 -
15:09 20,4 14,5 19,3 WZW 19,1 1020,6 69 -
15:14 20,4 14,3 20,4 ZW 18,8 1020,6 68 -
15:19 20,6 14,5 20,4 ZZW 18,5 1020,6 68 -
15:24 20,7 14,3 18,5 ZW 16,1 1020,6 67 -
15:29 20,7 14,3 27,8 ZW 17,2 1020,5 67 -
15:34 20,7 14,4 27,8 WZW 19,1 1020,6 67 -
15:39 20,8 14,7 30,6 ZW 14,2 1020,6 68 -
15:44 20,9 14,6 22,2 ZZW 15,0 1020,6 67 -
15:49 20,9 14,3 25,9 ZW 17,2 1020,6 66 -
15:54 20,9 14,3 27,8 WZW 18,2 1020,6 66 -
15:59 20,9 14,3 20,9 Zuiden 14,8 1020,6 66 -
16:04 20,9 14,3 18,5 WZW 19,0 1020,5 66 -
16:09 20,9 14,3 24,1 WZW 14,5 1020,5 66 -
16:14 21,1 14,1 24,1 ZW 19,0 1020,5 64 -
16:19 21,0 14,2 22,5 ZW 15,0 1020,5 65 -
16:24 21,1 14,1 24,1 ZW 17,4 1020,5 64 -
16:29 21,1 14,2 27,8 ZW 21,7 1020,5 65 -
16:34 21,1 13,7 31,5 ZW 18,8 1020,5 63 -
16:39 21,1 13,7 20,4 ZW 14,8 1020,5 63 -
16:44 21,0 14,2 25,9 ZW 15,0 1020,4 65 -
Dagelijkse Samenvatting Zaterdag 18 augustus 2018
Tijd Temp. ( °C ) Dew pt. ( °C ) Wind ( km/h ) van Windvlaag ( km/h ) Luchtdruk ( hPa ) Humid.( % ) Rainrate ( cm )
Hoog21,2 16,2 31,5 ZW ( 1224/2619 ) 21,7 1020,7 92 -
Gemiddeld18,0 14,4 13,0 ZW #67/201 8,0 1020,0 80 -
Laag15,7 12,7 1,9   0,5 1019,2 63 -
Dagelijkse Tabular details for Zaterdag 18 augustus 2018
Tijd Temp. ( °C ) Dew pt. ( °C ) Wind ( km/h ) van Windvlaag ( km/h ) Luchtdruk ( hPa ) Humid.( % ) Rainrate ( cm )
00:04 16,9 12,8 5,6 ZZO 1,9 1019,9 77 -
00:09 16,8 12,8 3,7 ZZO 1,9 1020,0 77 -
00:14 16,8 12,9 3,7 ZZO 1,8 1020,0 78 -
00:19 16,7 12,9 5,6 ZZO 1,9 1020,0 78 -
00:24 16,7 12,8 5,6 ZZO 2,3 1020,0 78 -
00:29 16,6 12,9 5,6 ZZW 4,2 1020,0 79 -
00:34 16,6 12,9 1,9 Zuiden 1,6 1019,9 79 -
00:39 16,4 12,8 7,4 ZZW 3,7 1020,0 79 -
00:44 16,4 12,8 1,9 Zuiden 1,1 1019,9 79 -
00:49 16,4 12,7 5,6 ZZW 2,3 1019,9 79 -
00:54 16,3 12,7 7,4 Zuiden 1,6 1019,9 79 -
00:59 16,3 12,7 5,6 ZZW 1,9 1019,9 79 -
01:04 16,3 12,7 3,7 Zuiden 2,9 1019,9 79 -
01:09 16,3 12,7 9,3 ZZW 1,0 1019,9 79 -
01:14 16,3 12,9 7,4 ZZW 1,4 1019,9 80 -
01:19 16,3 12,9 5,6 Zuiden 4,3 1019,9 80 -
01:24 16,3 12,9 3,7 Zuiden 1,4 1019,9 80 -
01:29 16,3 12,9 5,6 ZZW 1,9 1019,9 80 -
01:34 16,3 12,8 6,4 ZZW 4,0 1019,9 80 -
01:39 16,3 13,0 5,6 ZZW 2,6 1019,8 81 -
01:44 16,2 12,9 3,7 Zuiden 4,7 1019,8 81 -
01:49 16,2 12,9 3,7 ZZW 2,4 1019,8 81 -
01:54 16,2 12,9 5,6 Zuiden 2,7 1019,7 81 -
01:59 16,2 12,9 5,6 ZZW 3,4 1019,8 81 -
02:04 16,2 13,1 5,6 ZZW 3,5 1019,7 82 -
02:09 16,2 13,1 5,6 ZW 2,3 1019,7 82 -
02:14 16,1 13,1 5,6 ZW 3,5 1019,7 82 -
02:19 16,1 13,1 1,9 Zuiden 2,3 1019,7 82 -
02:24 16,1 13,1 5,6 ZZW 3,7 1019,7 82 -
02:29 16,1 13,2 1,9 ZZO 1,9 1019,7 83 -
02:34 16,1 13,2 5,6 ZO 1,8 1019,7 83 -
02:39 16,0 13,1 3,7 Zuiden 0,5 1019,6 83 -
02:44 16,0 13,1 5,6 ZO 3,2 1019,6 83 -
02:49 15,9 13,1 3,7 Zuiden 1,8 1019,6 83 -
02:54 15,9 13,2 5,6 ZZW 2,4 1019,6 84 -
02:59 15,9 13,2 5,6 ZZW 0,8 1019,6 84 -
03:04 15,9 13,2 5,6 ZZW 1,9 1019,5 84 -
03:09 15,9 13,2 5,6 ZW 2,4 1019,5 84 -
03:14 15,9 13,2 6,4 ZZW 3,5 1019,6 84 -
03:19 15,8 13,3 5,6 ZZO 4,3 1019,6 85 -
03:24 15,8 13,3 5,6 Zuiden 2,3 1019,6 85 -
03:29 15,8 13,3 5,6 ZZW 1,6 1019,6 85 -
03:34 15,8 13,3 5,6 ZZW 2,4 1019,6 85 -
03:39 15,8 13,3 5,6 ZW 5,8 1019,7 85 -
03:44 15,9 13,6 4,8 ZZW 2,4 1019,7 86 -
03:49 15,9 13,6 5,6 ZZO 3,1 1019,6 86 -
03:54 15,9 13,6 9,3 Zuiden 2,1 1019,6 86 -
03:59 15,9 13,6 4,8 Zuiden 3,5 1019,6 86 -
04:04 15,9 13,6 3,7 NNW 1,3 1019,4 86 -
04:09 15,9 13,6 7,4 ZZW 3,5 1019,4 86 -
04:14 15,9 13,6 5,6 ZZW 2,7 1019,4 86 -
04:19 15,9 13,6 3,7 Zuiden 1,9 1019,4 86 -
04:24 15,8 13,5 3,7 ZW 2,1 1019,3 86 -
04:29 15,8 13,6 7,4 ZZW 1,9 1019,3 87 -
04:34 15,8 13,6 5,6 Zuiden 3,1 1019,3 87 -
04:39 15,8 13,6 5,6 ZZW 3,1 1019,3 87 -
04:44 15,8 13,6 5,6 Zuiden 2,6 1019,3 87 -
04:49 15,8 13,6 3,7 ZZW 2,9 1019,3 87 -
04:54 15,7 13,7 3,7 Zuiden 1,3 1019,4 88 -
04:59 15,8 13,8 5,6 Zuiden 3,7 1019,3 88 -
05:04 15,8 13,8 7,4 Zuiden 2,4 1019,3 88 -
05:09 15,8 13,8 7,4 Zuiden 4,3 1019,3 88 -
05:14 15,9 13,9 7,4 ZZW 5,3 1019,2 88 -
05:19 15,9 14,1 5,6 Zuiden 1,6 1019,2 89 -
05:24 15,9 14,1 5,6 Zuiden 2,9 1019,2 89 -
05:29 15,9 14,1 3,7 ZZW 2,1 1019,2 89 -
05:34 16,0 14,2 5,6 Zuiden 1,8 1019,2 89 -
05:39 16,0 14,2 7,4 ZZW 3,7 1019,2 89 -
05:44 16,0 14,2 9,3 ZZO 2,7 1019,2 89 -
05:49 16,0 14,2 5,6 ZZW 3,2 1019,2 89 -
05:54 16,1 14,2 13,0 Zuiden 3,5 1019,2 89 -
05:59 16,1 14,2 5,6 ZW 1,8 1019,3 89 -
06:04 16,1 14,2 7,4 ZW 3,7 1019,2 89 -
06:09 16,1 14,2 5,6 ZZW 1,3 1019,2 89 -
06:14 16,0 14,2 6,4 Oosten 2,1 1019,2 89 -
06:19 16,1 14,2 9,3 Zuiden 1,9 1019,2 89 -
06:24 16,0 14,2 7,4 ZZW 2,1 1019,3 89 -
06:29 15,9 14,1 9,3 ZZO 3,5 1019,4 89 -
06:34 15,9 14,1 6,4 ZW 5,0 1019,4 89 -
06:39 15,9 14,1 9,3 Zuiden 5,5 1019,4 89 -
06:44 15,9 14,1 7,4 Zuiden 5,0 1019,4 89 -
06:49 15,9 14,3 7,4 ZZO 4,2 1019,4 90 -
06:54 15,9 14,3 7,4 ZZW 3,4 1019,4 90 -
06:59 15,9 14,3 13,0 ZW 4,8 1019,5 90 -
07:04 15,9 14,3 5,6 Westen 5,3 1019,6 90 -
07:09 16,0 14,3 5,6 ZZW 5,6 1019,6 90 -
07:14 16,1 14,8 6,4 Zuiden 1,8 1019,6 92 -
07:19 16,1 14,4 9,3 ZZW 6,4 1019,7 90 -
07:24 16,2 14,5 8,0 ZZW 7,6 1019,7 90 -
07:29 16,2 14,6 7,4 ZW 2,9 1019,7 90 -
07:34 16,3 14,7 7,4 ZZW 2,9 1019,7 90 -
07:39 16,4 14,8 9,7 Zuiden 3,2 1019,6 90 -
07:44 16,6 14,9 5,6 ZZW 5,5 1019,6 90 -
07:49 16,7 14,8 11,1 Zuiden 3,9 1019,7 89 -
07:54 16,8 15,0 9,7 Zuiden 6,0 1019,6 89 -
07:59 17,1 15,2 9,7 ZZO 5,1 1019,6 89 -
08:04 17,3 15,3 6,4 ZW 4,5 1019,7 88 -
08:09 17,3 15,1 7,4 ZW 5,8 1019,7 87 -
08:14 17,3 15,1 6,4 ZW 7,9 1019,7 87 -
08:19 17,2 15,1 14,8 ZW 5,5 1019,8 87 -
08:24 17,2 15,1 9,3 ZZW 6,0 1019,7 87 -
08:29 17,2 15,2 14,8 ZW 11,3 1019,8 88 -
08:34 17,2 15,2 9,7 ZZO 5,8 1019,8 88 -
08:39 17,3 15,3 9,3 ZZW 3,5 1019,9 88 -
08:44 17,3 15,3 5,6 ZW 2,9 1019,9 88 -
08:49 17,3 15,3 5,6 Zuiden 4,8 1019,9 88 -
08:54 17,3 15,3 9,3 ZZW 6,6 1019,9 88 -
08:59 17,3 15,3 9,3 Zuiden 4,3 1019,9 88 -
09:04 17,3 15,3 9,3 Zuiden 4,8 1019,9 88 -
09:09 17,4 15,4 13,0 Zuiden 4,7 1019,9 88 -
09:14 17,6 15,6 7,4 ZZW 9,3 1020,0 88 -
09:19 17,8 15,7 14,8 ZZW 7,6 1019,9 87 -
09:24 18,0 15,8 9,3 ZW 5,1 1019,9 87 -
09:29 18,1 15,8 11,3 ZW 8,8 1019,9 87 -
09:34 18,1 15,7 11,1 WZW 5,1 1019,9 86 -
09:39 18,2 16,0 13,0 ZW 4,0 1019,8 87 -
09:44 18,4 16,1 7,4 ZZW 6,9 1019,8 86 -
09:49 18,7 16,1 16,7 WZW 4,5 1019,8 85 -
09:54 18,9 16,1 16,7 Zuiden 4,7 1019,9 84 -
09:59 19,2 16,2 13,0 ZW 2,6 1019,9 83 -
10:04 19,3 16,1 11,1 ZZW 5,8 1020,0 82 -
10:09 19,2 15,7 22,2 ZW 10,3 1020,0 80 -
10:14 19,2 15,4 18,5 ZZW 14,0 1020,1 79 -
10:19 19,2 15,4 22,2 ZW 13,0 1020,0 79 -
10:24 19,4 15,7 14,8 ZZW 6,8 1020,0 79 -
10:29 19,7 15,4 22,2 WZW 14,5 1020,1 76 -
10:34 19,7 14,9 27,8 ZW 16,6 1020,1 74 -
10:39 19,6 14,8 22,2 ZW 14,8 1020,1 74 -
10:44 19,7 14,9 24,1 ZW 17,1 1020,2 74 -
10:49 19,8 15,0 18,5 ZW 13,2 1020,2 74 -
10:54 19,8 15,1 24,1 WZW 18,0 1020,2 74 -
10:59 19,9 15,1 22,2 WZW 13,2 1020,3 74 -
11:04 20,1 15,3 25,9 WZW 12,1 1020,3 74 -
11:09 20,2 15,4 18,5 ZW 8,7 1020,3 74 -
11:14 20,2 15,2 24,1 ZW 11,6 1020,4 73 -
11:19 20,1 15,1 20,4 ZW 15,1 1020,4 73 -
11:24 20,0 15,0 19,3 WZW 15,9 1020,4 73 -
11:29 19,9 15,2 24,1 ZZW 17,5 1020,4 74 -
11:34 19,8 15,2 27,8 ZW 16,3 1020,5 75 -
11:39 19,7 15,1 22,2 ZW 15,6 1020,3 75 -
11:44 19,6 15,1 22,2 ZZW 14,8 1020,4 75 -
11:49 19,6 15,3 18,5 ZW 12,7 1020,4 76 -
11:54 19,7 15,4 16,7 Zuiden 13,2 1020,4 76 -
11:59 19,8 15,2 18,5 ZW 7,9 1020,4 75 -
12:04 19,8 15,3 20,4 WZW 15,8 1020,4 75 -
12:09 19,8 15,3 16,7 ZZW 18,5 1020,5 75 -
12:14 19,7 15,4 16,7 ZW 8,8 1020,4 76 -
12:19 19,7 15,5 19,3 ZW 14,3 1020,5 77 -
12:24 19,6 15,4 22,2 ZW 14,5 1020,5 77 -
12:29 19,6 15,4 20,4 ZW 13,7 1020,5 77 -
12:34 19,8 15,6 18,5 Zuiden 12,4 1020,5 77 -
12:39 20,2 15,7 14,8 ZZW 13,5 1020,5 75 -
12:44 20,4 15,6 22,2 WZW 15,6 1020,4 74 -
12:49 20,4 15,4 17,7 WZW 14,2 1020,5 73 -
12:54 20,3 15,1 22,2 ZZW 17,5 1020,6 72 -
12:59 20,4 15,4 18,5 ZW 10,6 1020,5 73 -
13:04 20,5 15,3 29,6 ZW 16,6 1020,6 72 -
13:09 20,7 15,4 25,7 ZW 14,8 1020,5 72 -
13:14 20,7 15,1 22,2 ZW 16,7 1020,5 70 -
13:19 20,7 15,2 24,1 WZW 15,3 1020,5 71 -
13:24 20,7 15,4 20,4 ZW 12,1 1020,5 72 -
13:29 20,6 15,2 20,9 ZW 13,2 1020,5 71 -
13:34 20,8 15,1 27,8 ZW 16,7 1020,6 70 -
13:39 20,9 15,0 22,2 ZZW 15,0 1020,6 69 -
13:44 21,1 15,0 22,2 ZW 15,1 1020,6 68 -
13:49 21,2 15,0 31,5 ZZO 17,9 1020,6 68 -
13:54 21,2 15,0 18,5 ZW 11,7 1020,6 68 -
13:59 21,1 14,9 16,7 ZW 16,7 1020,6 68 -
14:04 21,1 14,9 24,1 ZW 14,8 1020,5 68 -
14:09 20,9 14,8 22,2 ZZW 14,3 1020,6 68 -
14:14 20,9 15,1 18,5 ZZW 13,2 1020,6 69 -
14:19 20,9 15,0 22,2 ZW 11,4 1020,6 69 -
14:24 20,7 14,8 22,2 ZW 16,9 1020,6 69 -
14:29 20,4 14,8 20,4 WZW 10,6 1020,6 70 -
14:34 20,3 14,7 22,2 ZZW 17,4 1020,6 70 -
14:39 20,2 14,6 18,5 ZW 14,6 1020,7 70 -
14:44 20,2 14,7 27,8 ZZW 17,9 1020,6 71 -
14:49 20,2 14,5 18,5 ZW 10,5 1020,6 70 -
14:54 20,3 14,6 16,7 ZW 8,0 1020,7 70 -
14:59 20,4 14,5 18,5 ZW 16,3 1020,7 69 -
15:04 20,3 14,2 27,8 ZW 13,5 1020,6 68 -
15:09 20,4 14,5 19,3 WZW 19,1 1020,6 69 -
15:14 20,4 14,3 20,4 ZW 18,8 1020,6 68 -
15:19 20,6 14,5 20,4 ZZW 18,5 1020,6 68 -
15:24 20,7 14,3 18,5 ZW 16,1 1020,6 67 -
15:29 20,7 14,3 27,8 ZW 17,2 1020,5 67 -
15:34 20,7 14,4 27,8 WZW 19,1 1020,6 67 -
15:39 20,8 14,7 30,6 ZW 14,2 1020,6 68 -
15:44 20,9 14,6 22,2 ZZW 15,0 1020,6 67 -
15:49 20,9 14,3 25,9 ZW 17,2 1020,6 66 -
15:54 20,9 14,3 27,8 WZW 18,2 1020,6 66 -
15:59 20,9 14,3 20,9 Zuiden 14,8 1020,6 66 -
16:04 20,9 14,3 18,5 WZW 19,0 1020,5 66 -
16:09 20,9 14,3 24,1 WZW 14,5 1020,5 66 -
16:14 21,1 14,1 24,1 ZW 19,0 1020,5 64 -
16:19 21,0 14,2 22,5 ZW 15,0 1020,5 65 -
16:24 21,1 14,1 24,1 ZW 17,4 1020,5 64 -
16:29 21,1 14,2 27,8 ZW 21,7 1020,5 65 -
16:34 21,1 13,7 31,5 ZW 18,8 1020,5 63 -
16:39 21,1 13,7 20,4 ZW 14,8 1020,5 63 -
16:44 21,0 14,2 25,9 ZW 15,0 1020,4 65 -

Download your copy of this data-set  here

Our weather-data as stored at Weather Underground. Script ontwikkeld door Jim McMurry. Aangepast voor de template door Leuven-Template.eu

U vindt ons ook hier:

Het Weer Aktueel

European Weather Network

Weather Underground

Benelux Weer Netwerk

Citizen Weather Observer Program (CWOP)

Apparatuur in gebruik:

Weerstation
Davis VP2

Weerprogramma
Weather Display

Weercomputer
My Computer

Webleverancier
WeservIT

Davis VP2

Weather Display

My Computer

WeservIT